Terminal Aerodrome Forecast
Issued by NWS Pendleton, OR

Home | Current Version | Previous Version | Text Only | Print | Product List | Glossary On
Versions: 1 2 3 4 5 6 7 8 9 10 11 12 13 14 15 16 17 18 19 20 21 22 23 24
351
FTUS46 KPDT 101140
TAFPDT
TAF
KPDT 101140Z 1012/1112 30006KT 5SM -SHSN BR SCT004 BKN018 OVC050
      TEMPO 1012/1016 2SM -SN BR BKN002 OVC018
     FM101700 25009KT P6SM SCT050 BKN100
     FM110000 18006KT P6SM SCT040 OVC070
     FM110600 22009KT P6SM VCSH BKN040 OVC070=

USA.gov is the U.S. government's official web portal to all federal, state and local government web resources and services.